Glacier Park International Airport
KGPI : now visible

Airfield :











YOU CAN JOIN US ON...

 
LOGIN :

Register | Disclaimer

   EN    FR    IT 

 









Legend :    VFR   Marginal VFR   IFR   Intensive IFR   Very Intensive IFR
Visi :
Ceiling :
>= 8 km
>= 3000ft
5 to 8 km
1000 to 3000 ft
1500m to 5 km
500 to 1000 ft
800 to 1500m
200 to 500 ft
< 800m
< 200 ft
Symbols :   Thunderstorms  Fog  Heavy snow  Heavy precipitations  Wind > 20 kt






- Airport Elevation : 2977 ft
- IATA code : FCA


KGPI - Glacier Park International

CURRENT METAR :
  • 172155Z 25008KT 10SM FEW038 BKN050 02/M06 A3009 RMK AO2 SNB2057E22 SLP216 P0000 T00171061

EXPIRED METARs :
  • 172122Z 00000KT 7SM FEW012 SCT022 OVC075 02/M06 A3008 RMK AO2 SNB2057E22 P0000 T00171056
  • 172109Z VRB03KT 2 1/2SM -SN BKN017 BKN029 OVC070 00/M05 A3009 RMK AO2 VIS 1V5 SNB2057 P0000 T00001050
  • 172055Z 30007G14KT 10SM FEW025 SCT032 BKN050 01/M05 A3009 RMK AO2 SNB05E29 SLP216 P0000 60000 T00061050 51004
  • 172035Z 00000KT 10SM SCT018 BKN050 01/M04 A3008 RMK AO2 SNB05E29 P0000 T00111039
  • 172024Z 00000KT 4SM -SN BKN024 BKN034 BKN055 01/M04 A3008 RMK AO2 VIS 2 NE SNB05 P0000 T00061044
  • 172015Z 00000KT 1/2SM SN BKN020 BKN050 OVC070 M01/M04 A3009 RMK AO2 SNB05 P0000 T10111044
  • 171955Z 00000KT 10SM SCT055 OVC075 02/M05 A3008 RMK AO2 SNE1857 SLP213 P0000 T00171050

TAF KGPI
Valid from the 17 at 21:00 until the 18 at 18:00 UTC


172103Z 1721/1818 30011KT P6SM VCSH BKN050
TEMPO 1721/1723 3SM -SN OVC030
FM180000 VRB03KT P6SM BKN100
FM180600 VRB04KT P6SM VCSH OVC050



MET'MAP, your aeronautical weather chart ! - Copyright ORBIFLY December 2007 - Disclaimer

ORBIFLY MET'MAP TEAM :

Programming & Development : Alexandra Zaïnal
Concept & original design : Baudouin d'Aumeries
Assistance for programming : Marc-Olivier Méhu
Technical & hardware support : Manuel Goepfert

Contact : metmap@orbifly.com




SOURCES & CREDITS :

   NOAA       Earth
Advisory